sensor_id;sensor_type;location;lat;lon;timestamp;P1;durP1;ratioP1;P2;durP2;ratioP2
25073;SDS011;13066;52.042;5.648;2023-01-19T00:01:22;23.08;;;12.15;;
25073;SDS011;13066;52.042;5.648;2023-01-19T00:03:50;27.35;;;12.52;;
25073;SDS011;13066;52.042;5.648;2023-01-19T00:06:18;32.17;;;15.43;;
25073;SDS011;13066;52.042;5.648;2023-01-19T00:08:46;20.52;;;12.60;;
25073;SDS011;13066;52.042;5.648;2023-01-19T00:11:16;28.73;;;12.48;;
25073;SDS011;13066;52.042;5.648;2023-01-19T00:13:46;29.05;;;12.07;;
25073;SDS011;13066;52.042;5.648;2023-01-19T00:16:16;29.92;;;12.77;;
25073;SDS011;13066;52.042;5.648;2023-01-19T00:18:44;24.08;;;13.15;;
25073;SDS011;13066;52.042;5.648;2023-01-19T00:21:12;26.08;;;12.32;;
25073;SDS011;13066;52.042;5.648;2023-01-19T00:23:41;21.40;;;11.98;;
25073;SDS011;13066;52.042;5.648;2023-01-19T00:26:13;22.65;;;12.80;;
25073;SDS011;13066;52.042;5.648;2023-01-19T00:28:42;24.13;;;11.88;;
25073;SDS011;13066;52.042;5.648;2023-01-19T00:31:11;24.58;;;12.75;;
25073;SDS011;13066;52.042;5.648;2023-01-19T00:33:39;22.13;;;13.10;;
25073;SDS011;13066;52.042;5.648;2023-01-19T00:36:07;23.10;;;12.90;;
25073;SDS011;13066;52.042;5.648;2023-01-19T00:38:36;21.88;;;13.15;;
25073;SDS011;13066;52.042;5.648;2023-01-19T00:41:05;23.42;;;13.13;;
25073;SDS011;13066;52.042;5.648;2023-01-19T00:43:33;22.30;;;13.40;;
25073;SDS011;13066;52.042;5.648;2023-01-19T00:46:00;23.67;;;12.55;;
25073;SDS011;13066;52.042;5.648;2023-01-19T00:48:29;22.63;;;12.15;;
25073;SDS011;13066;52.042;5.648;2023-01-19T00:50:57;24.60;;;12.23;;
25073;SDS011;13066;52.042;5.648;2023-01-19T00:53:26;24.35;;;12.30;;
25073;SDS011;13066;52.042;5.648;2023-01-19T00:55:57;20.05;;;12.05;;
25073;SDS011;13066;52.042;5.648;2023-01-19T00:58:25;26.38;;;12.02;;
25073;SDS011;13066;52.042;5.648;2023-01-19T01:00:53;22.25;;;11.27;;
25073;SDS011;13066;52.042;5.648;2023-01-19T01:03:30;22.60;;;11.32;;
25073;SDS011;13066;52.042;5.648;2023-01-19T01:05:58;19.70;;;11.52;;
25073;SDS011;13066;52.042;5.648;2023-01-19T01:08:26;21.45;;;11.70;;
25073;SDS011;13066;52.042;5.648;2023-01-19T01:10:53;22.25;;;11.82;;
25073;SDS011;13066;52.042;5.648;2023-01-19T01:13:21;20.55;;;10.80;;
25073;SDS011;13066;52.042;5.648;2023-01-19T01:15:53;18.20;;;10.38;;
25073;SDS011;13066;52.042;5.648;2023-01-19T01:18:22;32.95;;;10.90;;
25073;SDS011;13066;52.042;5.648;2023-01-19T01:20:52;20.55;;;10.30;;
25073;SDS011;13066;52.042;5.648;2023-01-19T01:23:21;24.92;;;11.57;;
25073;SDS011;13066;52.042;5.648;2023-01-19T01:25:49;18.08;;;10.68;;
25073;SDS011;13066;52.042;5.648;2023-01-19T01:28:17;20.13;;;9.82;;
25073;SDS011;13066;52.042;5.648;2023-01-19T01:30:45;17.88;;;9.73;;
25073;SDS011;13066;52.042;5.648;2023-01-19T01:33:13;20.55;;;9.93;;
25073;SDS011;13066;52.042;5.648;2023-01-19T01:36:02;17.52;;;9.07;;
25073;SDS011;13066;52.042;5.648;2023-01-19T01:38:30;12.73;;;7.93;;
25073;SDS011;13066;52.042;5.648;2023-01-19T01:40:58;12.05;;;7.75;;
25073;SDS011;13066;52.042;5.648;2023-01-19T01:43:39;17.45;;;9.13;;
25073;SDS011;13066;52.042;5.648;2023-01-19T01:46:10;14.70;;;8.23;;
25073;SDS011;13066;52.042;5.648;2023-01-19T01:48:41;16.25;;;8.32;;
25073;SDS011;13066;52.042;5.648;2023-01-19T01:51:14;20.65;;;8.82;;
25073;SDS011;13066;52.042;5.648;2023-01-19T01:53:53;17.95;;;8.02;;
25073;SDS011;13066;52.042;5.648;2023-01-19T01:56:30;14.52;;;9.45;;
25073;SDS011;13066;52.042;5.648;2023-01-19T01:59:00;14.43;;;8.63;;
25073;SDS011;13066;52.042;5.648;2023-01-19T02:01:29;15.35;;;8.80;;
25073;SDS011;13066;52.042;5.648;2023-01-19T02:04:15;18.25;;;9.48;;
25073;SDS011;13066;52.042;5.648;2023-01-19T02:06:44;14.20;;;7.47;;
25073;SDS011;13066;52.042;5.648;2023-01-19T02:09:30;13.23;;;7.30;;
25073;SDS011;13066;52.042;5.648;2023-01-19T02:12:19;10.95;;;6.97;;
25073;SDS011;13066;52.042;5.648;2023-01-19T02:15:12;9.73;;;7.40;;
25073;SDS011;13066;52.042;5.648;2023-01-19T02:17:41;11.15;;;7.10;;
25073;SDS011;13066;52.042;5.648;2023-01-19T02:20:09;12.77;;;7.07;;
25073;SDS011;13066;52.042;5.648;2023-01-19T02:22:41;13.35;;;7.85;;
25073;SDS011;13066;52.042;5.648;2023-01-19T02:25:14;12.48;;;7.95;;
25073;SDS011;13066;52.042;5.648;2023-01-19T02:27:42;15.05;;;8.45;;
25073;SDS011;13066;52.042;5.648;2023-01-19T02:30:10;15.68;;;9.35;;
25073;SDS011;13066;52.042;5.648;2023-01-19T02:32:39;11.68;;;8.27;;
25073;SDS011;13066;52.042;5.648;2023-01-19T02:35:07;14.23;;;8.98;;
25073;SDS011;13066;52.042;5.648;2023-01-19T02:37:36;13.98;;;9.20;;
25073;SDS011;13066;52.042;5.648;2023-01-19T02:40:07;14.13;;;8.40;;
25073;SDS011;13066;52.042;5.648;2023-01-19T02:42:39;11.48;;;7.80;;
25073;SDS011;13066;52.042;5.648;2023-01-19T02:45:10;14.35;;;8.07;;
25073;SDS011;13066;52.042;5.648;2023-01-19T02:47:41;12.98;;;6.50;;
25073;SDS011;13066;52.042;5.648;2023-01-19T02:56:27;9.70;;;6.25;;
25073;SDS011;13066;52.042;5.648;2023-01-19T02:59:03;9.85;;;6.15;;
25073;SDS011;13066;52.042;5.648;2023-01-19T03:01:36;13.48;;;5.57;;
25073;SDS011;13066;52.042;5.648;2023-01-19T03:04:10;8.77;;;4.75;;
25073;SDS011;13066;52.042;5.648;2023-01-19T03:06:42;9.93;;;4.00;;
25073;SDS011;13066;52.042;5.648;2023-01-19T03:09:14;8.48;;;2.70;;
25073;SDS011;13066;52.042;5.648;2023-01-19T03:11:50;11.45;;;2.20;;
25073;SDS011;13066;52.042;5.648;2023-01-19T03:14:23;5.18;;;1.65;;
25073;SDS011;13066;52.042;5.648;2023-01-19T03:16:53;1.83;;;1.08;;
25073;SDS011;13066;52.042;5.648;2023-01-19T03:19:24;4.45;;;1.10;;
25073;SDS011;13066;52.042;5.648;2023-01-19T03:21:54;7.38;;;1.27;;
25073;SDS011;13066;52.042;5.648;2023-01-19T03:24:25;4.15;;;1.20;;
25073;SDS011;13066;52.042;5.648;2023-01-19T03:26:57;8.23;;;1.17;;
25073;SDS011;13066;52.042;5.648;2023-01-19T03:29:30;5.68;;;1.20;;
25073;SDS011;13066;52.042;5.648;2023-01-19T03:32:00;7.00;;;1.35;;
25073;SDS011;13066;52.042;5.648;2023-01-19T03:34:30;3.10;;;0.98;;
25073;SDS011;13066;52.042;5.648;2023-01-19T03:36:58;6.97;;;1.92;;
25073;SDS011;13066;52.042;5.648;2023-01-19T03:39:28;2.05;;;1.02;;
25073;SDS011;13066;52.042;5.648;2023-01-19T03:41:57;3.33;;;1.08;;
25073;SDS011;13066;52.042;5.648;2023-01-19T03:44:28;1.95;;;0.80;;
25073;SDS011;13066;52.042;5.648;2023-01-19T03:46:57;2.42;;;0.80;;
25073;SDS011;13066;52.042;5.648;2023-01-19T03:49:25;1.90;;;0.70;;
25073;SDS011;13066;52.042;5.648;2023-01-19T03:51:53;7.15;;;1.50;;
25073;SDS011;13066;52.042;5.648;2023-01-19T03:54:21;5.55;;;1.02;;
25073;SDS011;13066;52.042;5.648;2023-01-19T03:56:49;7.93;;;1.13;;
25073;SDS011;13066;52.042;5.648;2023-01-19T03:59:18;3.38;;;1.17;;
25073;SDS011;13066;52.042;5.648;2023-01-19T04:01:48;7.38;;;1.00;;
25073;SDS011;13066;52.042;5.648;2023-01-19T04:04:16;3.45;;;1.00;;
25073;SDS011;13066;52.042;5.648;2023-01-19T04:06:44;4.65;;;0.85;;
25073;SDS011;13066;52.042;5.648;2023-01-19T04:09:12;4.07;;;0.88;;
25073;SDS011;13066;52.042;5.648;2023-01-19T04:11:39;5.10;;;0.75;;
25073;SDS011;13066;52.042;5.648;2023-01-19T04:14:07;8.68;;;1.15;;
25073;SDS011;13066;52.042;5.648;2023-01-19T04:16:35;3.13;;;0.80;;
25073;SDS011;13066;52.042;5.648;2023-01-19T04:19:04;7.43;;;1.10;;
25073;SDS011;13066;52.042;5.648;2023-01-19T04:21:32;5.70;;;1.20;;
25073;SDS011;13066;52.042;5.648;2023-01-19T04:24:00;3.08;;;1.30;;
25073;SDS011;13066;52.042;5.648;2023-01-19T04:26:28;5.55;;;1.42;;
25073;SDS011;13066;52.042;5.648;2023-01-19T04:28:56;2.53;;;0.90;;
25073;SDS011;13066;52.042;5.648;2023-01-19T04:31:24;4.35;;;0.70;;
25073;SDS011;13066;52.042;5.648;2023-01-19T04:33:52;3.63;;;1.00;;
25073;SDS011;13066;52.042;5.648;2023-01-19T04:36:23;4.47;;;1.13;;
25073;SDS011;13066;52.042;5.648;2023-01-19T04:38:51;3.80;;;0.93;;
25073;SDS011;13066;52.042;5.648;2023-01-19T04:41:19;5.85;;;0.90;;
25073;SDS011;13066;52.042;5.648;2023-01-19T04:43:47;6.35;;;1.17;;
25073;SDS011;13066;52.042;5.648;2023-01-19T04:46:15;4.05;;;1.20;;
25073;SDS011;13066;52.042;5.648;2023-01-19T04:48:42;3.53;;;1.17;;
25073;SDS011;13066;52.042;5.648;2023-01-19T04:51:10;4.18;;;1.13;;
25073;SDS011;13066;52.042;5.648;2023-01-19T04:53:39;4.53;;;1.00;;
25073;SDS011;13066;52.042;5.648;2023-01-19T04:56:07;3.03;;;1.08;;
25073;SDS011;13066;52.042;5.648;2023-01-19T04:58:36;4.45;;;1.15;;
25073;SDS011;13066;52.042;5.648;2023-01-19T05:01:06;1.95;;;1.00;;
25073;SDS011;13066;52.042;5.648;2023-01-19T05:03:34;7.55;;;1.50;;
25073;SDS011;13066;52.042;5.648;2023-01-19T05:06:02;4.68;;;1.20;;
25073;SDS011;13066;52.042;5.648;2023-01-19T05:08:30;6.72;;;1.63;;
25073;SDS011;13066;52.042;5.648;2023-01-19T05:10:59;10.68;;;1.80;;
25073;SDS011;13066;52.042;5.648;2023-01-19T05:13:27;5.28;;;1.77;;
25073;SDS011;13066;52.042;5.648;2023-01-19T05:15:55;5.68;;;1.80;;
25073;SDS011;13066;52.042;5.648;2023-01-19T05:18:23;6.97;;;1.90;;
25073;SDS011;13066;52.042;5.648;2023-01-19T05:20:51;6.20;;;1.75;;
25073;SDS011;13066;52.042;5.648;2023-01-19T05:23:18;11.45;;;1.33;;
25073;SDS011;13066;52.042;5.648;2023-01-19T05:25:46;5.45;;;1.50;;
25073;SDS011;13066;52.042;5.648;2023-01-19T05:28:15;7.75;;;1.35;;
25073;SDS011;13066;52.042;5.648;2023-01-19T05:30:43;11.10;;;1.20;;
25073;SDS011;13066;52.042;5.648;2023-01-19T05:33:11;4.90;;;1.33;;
25073;SDS011;13066;52.042;5.648;2023-01-19T05:35:39;5.63;;;1.50;;
25073;SDS011;13066;52.042;5.648;2023-01-19T05:38:07;5.88;;;1.20;;
25073;SDS011;13066;52.042;5.648;2023-01-19T05:40:35;5.18;;;1.33;;
25073;SDS011;13066;52.042;5.648;2023-01-19T05:43:02;10.50;;;1.35;;
25073;SDS011;13066;52.042;5.648;2023-01-19T05:45:33;7.28;;;1.73;;
25073;SDS011;13066;52.042;5.648;2023-01-19T05:48:01;8.93;;;1.40;;
25073;SDS011;13066;52.042;5.648;2023-01-19T05:50:28;8.48;;;1.67;;
25073;SDS011;13066;52.042;5.648;2023-01-19T05:52:56;3.42;;;1.02;;
25073;SDS011;13066;52.042;5.648;2023-01-19T05:55:25;6.38;;;1.45;;
25073;SDS011;13066;52.042;5.648;2023-01-19T05:57:54;7.97;;;1.60;;
25073;SDS011;13066;52.042;5.648;2023-01-19T06:00:22;9.20;;;1.33;;
25073;SDS011;13066;52.042;5.648;2023-01-19T06:02:54;12.38;;;2.30;;
25073;SDS011;13066;52.042;5.648;2023-01-19T06:05:22;10.95;;;1.60;;
25073;SDS011;13066;52.042;5.648;2023-01-19T06:07:49;9.70;;;1.77;;
25073;SDS011;13066;52.042;5.648;2023-01-19T06:10:17;12.38;;;1.83;;
25073;SDS011;13066;52.042;5.648;2023-01-19T06:12:46;13.30;;;1.60;;
25073;SDS011;13066;52.042;5.648;2023-01-19T06:15:13;12.55;;;1.85;;
25073;SDS011;13066;52.042;5.648;2023-01-19T06:17:41;15.93;;;2.25;;
25073;SDS011;13066;52.042;5.648;2023-01-19T06:20:11;13.25;;;2.33;;
25073;SDS011;13066;52.042;5.648;2023-01-19T06:22:40;16.73;;;2.15;;
25073;SDS011;13066;52.042;5.648;2023-01-19T06:25:08;11.80;;;2.35;;
25073;SDS011;13066;52.042;5.648;2023-01-19T06:27:37;15.43;;;2.05;;
25073;SDS011;13066;52.042;5.648;2023-01-19T06:30:06;15.88;;;2.72;;
25073;SDS011;13066;52.042;5.648;2023-01-19T06:32:35;15.63;;;2.20;;
25073;SDS011;13066;52.042;5.648;2023-01-19T06:35:03;16.67;;;2.13;;
25073;SDS011;13066;52.042;5.648;2023-01-19T06:37:34;17.65;;;2.22;;
25073;SDS011;13066;52.042;5.648;2023-01-19T06:40:02;16.67;;;2.38;;
25073;SDS011;13066;52.042;5.648;2023-01-19T06:42:31;15.10;;;1.73;;
25073;SDS011;13066;52.042;5.648;2023-01-19T06:44:58;21.70;;;2.47;;
25073;SDS011;13066;52.042;5.648;2023-01-19T06:47:26;12.32;;;2.13;;
25073;SDS011;13066;52.042;5.648;2023-01-19T06:49:54;11.02;;;2.30;;
25073;SDS011;13066;52.042;5.648;2023-01-19T06:52:22;15.40;;;2.50;;
25073;SDS011;13066;52.042;5.648;2023-01-19T06:54:51;24.58;;;2.45;;
25073;SDS011;13066;52.042;5.648;2023-01-19T06:57:21;12.93;;;2.50;;
25073;SDS011;13066;52.042;5.648;2023-01-19T06:59:51;11.13;;;1.90;;
25073;SDS011;13066;52.042;5.648;2023-01-19T07:02:19;15.63;;;2.35;;
25073;SDS011;13066;52.042;5.648;2023-01-19T07:04:53;11.70;;;2.28;;
25073;SDS011;13066;52.042;5.648;2023-01-19T07:07:21;14.90;;;1.73;;
25073;SDS011;13066;52.042;5.648;2023-01-19T07:09:49;20.25;;;2.78;;
25073;SDS011;13066;52.042;5.648;2023-01-19T07:12:21;14.98;;;2.08;;
25073;SDS011;13066;52.042;5.648;2023-01-19T07:14:49;15.73;;;2.30;;
25073;SDS011;13066;52.042;5.648;2023-01-19T07:17:18;11.82;;;2.35;;
25073;SDS011;13066;52.042;5.648;2023-01-19T07:19:46;21.33;;;2.40;;
25073;SDS011;13066;52.042;5.648;2023-01-19T07:22:14;17.52;;;3.03;;
25073;SDS011;13066;52.042;5.648;2023-01-19T07:24:42;11.90;;;2.75;;
25073;SDS011;13066;52.042;5.648;2023-01-19T07:27:10;13.75;;;2.80;;
25073;SDS011;13066;52.042;5.648;2023-01-19T07:29:39;15.23;;;2.97;;
25073;SDS011;13066;52.042;5.648;2023-01-19T07:32:07;14.05;;;2.33;;
25073;SDS011;13066;52.042;5.648;2023-01-19T07:34:35;15.20;;;2.95;;
25073;SDS011;13066;52.042;5.648;2023-01-19T07:37:03;16.08;;;2.78;;
25073;SDS011;13066;52.042;5.648;2023-01-19T07:39:31;11.50;;;2.50;;
25073;SDS011;13066;52.042;5.648;2023-01-19T07:42:02;16.60;;;3.10;;
25073;SDS011;13066;52.042;5.648;2023-01-19T07:44:30;20.65;;;4.25;;
25073;SDS011;13066;52.042;5.648;2023-01-19T07:46:59;15.38;;;3.50;;
25073;SDS011;13066;52.042;5.648;2023-01-19T07:49:27;16.48;;;3.47;;
25073;SDS011;13066;52.042;5.648;2023-01-19T07:51:54;13.50;;;3.05;;
25073;SDS011;13066;52.042;5.648;2023-01-19T07:54:22;18.42;;;3.20;;
25073;SDS011;13066;52.042;5.648;2023-01-19T07:56:52;15.45;;;3.17;;
25073;SDS011;13066;52.042;5.648;2023-01-19T07:59:20;11.05;;;3.30;;
25073;SDS011;13066;52.042;5.648;2023-01-19T08:01:48;16.92;;;3.28;;
25073;SDS011;13066;52.042;5.648;2023-01-19T08:04:18;12.73;;;3.20;;
25073;SDS011;13066;52.042;5.648;2023-01-19T08:06:46;14.65;;;3.25;;
25073;SDS011;13066;52.042;5.648;2023-01-19T08:09:14;11.13;;;3.53;;
25073;SDS011;13066;52.042;5.648;2023-01-19T08:11:43;14.38;;;3.28;;
25073;SDS011;13066;52.042;5.648;2023-01-19T08:14:11;14.48;;;3.97;;
25073;SDS011;13066;52.042;5.648;2023-01-19T08:16:39;16.70;;;3.67;;
25073;SDS011;13066;52.042;5.648;2023-01-19T08:19:07;17.10;;;4.13;;
25073;SDS011;13066;52.042;5.648;2023-01-19T08:21:36;13.27;;;3.97;;
25073;SDS011;13066;52.042;5.648;2023-01-19T08:24:04;16.92;;;4.45;;
25073;SDS011;13066;52.042;5.648;2023-01-19T08:26:33;12.07;;;4.82;;
25073;SDS011;13066;52.042;5.648;2023-01-19T08:29:02;12.60;;;4.22;;
25073;SDS011;13066;52.042;5.648;2023-01-19T08:31:31;14.13;;;4.60;;
25073;SDS011;13066;52.042;5.648;2023-01-19T08:33:59;15.77;;;4.85;;
25073;SDS011;13066;52.042;5.648;2023-01-19T08:36:26;19.38;;;4.88;;
25073;SDS011;13066;52.042;5.648;2023-01-19T08:38:56;17.27;;;4.72;;
25073;SDS011;13066;52.042;5.648;2023-01-19T08:41:24;19.35;;;4.80;;
25073;SDS011;13066;52.042;5.648;2023-01-19T08:43:52;11.68;;;4.47;;
25073;SDS011;13066;52.042;5.648;2023-01-19T08:46:20;20.88;;;5.10;;
25073;SDS011;13066;52.042;5.648;2023-01-19T08:48:48;19.48;;;4.38;;
25073;SDS011;13066;52.042;5.648;2023-01-19T08:51:16;14.18;;;4.60;;
25073;SDS011;13066;52.042;5.648;2023-01-19T08:53:45;14.73;;;4.65;;
25073;SDS011;13066;52.042;5.648;2023-01-19T08:56:14;17.20;;;4.93;;
25073;SDS011;13066;52.042;5.648;2023-01-19T08:58:44;18.48;;;4.35;;
25073;SDS011;13066;52.042;5.648;2023-01-19T09:01:28;15.00;;;5.10;;
25073;SDS011;13066;52.042;5.648;2023-01-19T09:03:56;18.40;;;4.70;;
25073;SDS011;13066;52.042;5.648;2023-01-19T09:06:24;18.35;;;5.22;;
25073;SDS011;13066;52.042;5.648;2023-01-19T09:08:53;13.50;;;4.47;;
25073;SDS011;13066;52.042;5.648;2023-01-19T09:11:22;18.05;;;5.03;;
25073;SDS011;13066;52.042;5.648;2023-01-19T09:13:50;21.35;;;5.20;;
25073;SDS011;13066;52.042;5.648;2023-01-19T09:16:18;20.98;;;4.45;;
25073;SDS011;13066;52.042;5.648;2023-01-19T09:18:46;16.20;;;3.80;;
25073;SDS011;13066;52.042;5.648;2023-01-19T09:21:14;12.40;;;3.42;;
25073;SDS011;13066;52.042;5.648;2023-01-19T09:23:42;22.70;;;3.42;;
25073;SDS011;13066;52.042;5.648;2023-01-19T09:26:10;19.05;;;4.38;;
25073;SDS011;13066;52.042;5.648;2023-01-19T09:28:39;13.48;;;3.65;;
25073;SDS011;13066;52.042;5.648;2023-01-19T09:31:07;18.13;;;3.83;;
25073;SDS011;13066;52.042;5.648;2023-01-19T09:33:36;21.90;;;3.65;;
25073;SDS011;13066;52.042;5.648;2023-01-19T09:36:04;18.23;;;3.33;;
25073;SDS011;13066;52.042;5.648;2023-01-19T09:38:32;13.68;;;3.47;;
25073;SDS011;13066;52.042;5.648;2023-01-19T09:41:00;12.63;;;2.58;;
25073;SDS011;13066;52.042;5.648;2023-01-19T09:43:34;13.05;;;2.53;;
25073;SDS011;13066;52.042;5.648;2023-01-19T09:46:09;19.20;;;2.63;;
25073;SDS011;13066;52.042;5.648;2023-01-19T09:48:41;13.23;;;2.70;;
25073;SDS011;13066;52.042;5.648;2023-01-19T09:51:12;16.60;;;2.50;;
25073;SDS011;13066;52.042;5.648;2023-01-19T09:53:51;20.67;;;3.92;;
25073;SDS011;13066;52.042;5.648;2023-01-19T09:56:24;10.57;;;2.70;;
25073;SDS011;13066;52.042;5.648;2023-01-19T09:58:56;20.05;;;2.83;;
25073;SDS011;13066;52.042;5.648;2023-01-19T10:01:29;16.85;;;2.35;;
25073;SDS011;13066;52.042;5.648;2023-01-19T10:04:10;11.48;;;2.35;;
25073;SDS011;13066;52.042;5.648;2023-01-19T10:06:53;15.23;;;2.47;;
25073;SDS011;13066;52.042;5.648;2023-01-19T10:09:27;18.50;;;3.30;;
25073;SDS011;13066;52.042;5.648;2023-01-19T10:12:00;15.38;;;3.55;;
25073;SDS011;13066;52.042;5.648;2023-01-19T10:14:32;18.45;;;3.03;;
25073;SDS011;13066;52.042;5.648;2023-01-19T10:17:08;21.10;;;2.88;;
25073;SDS011;13066;52.042;5.648;2023-01-19T10:19:46;15.10;;;2.70;;
25073;SDS011;13066;52.042;5.648;2023-01-19T10:22:18;11.50;;;2.40;;
25073;SDS011;13066;52.042;5.648;2023-01-19T10:24:49;23.45;;;2.92;;
25073;SDS011;13066;52.042;5.648;2023-01-19T10:27:21;17.42;;;2.83;;
25073;SDS011;13066;52.042;5.648;2023-01-19T10:29:51;12.65;;;2.88;;
25073;SDS011;13066;52.042;5.648;2023-01-19T10:32:21;17.10;;;3.03;;
25073;SDS011;13066;52.042;5.648;2023-01-19T10:34:51;16.10;;;3.25;;
25073;SDS011;13066;52.042;5.648;2023-01-19T10:37:24;12.95;;;2.65;;
25073;SDS011;13066;52.042;5.648;2023-01-19T10:39:57;15.10;;;2.50;;
25073;SDS011;13066;52.042;5.648;2023-01-19T10:42:28;13.02;;;2.45;;
25073;SDS011;13066;52.042;5.648;2023-01-19T10:44:57;9.43;;;1.98;;
25073;SDS011;13066;52.042;5.648;2023-01-19T10:47:28;11.52;;;2.38;;
25073;SDS011;13066;52.042;5.648;2023-01-19T10:49:58;12.00;;;2.50;;
25073;SDS011;13066;52.042;5.648;2023-01-19T10:52:28;18.38;;;2.60;;
25073;SDS011;13066;52.042;5.648;2023-01-19T10:54:56;14.40;;;2.80;;
25073;SDS011;13066;52.042;5.648;2023-01-19T10:57:27;14.18;;;2.65;;
25073;SDS011;13066;52.042;5.648;2023-01-19T10:59:55;17.95;;;2.95;;
25073;SDS011;13066;52.042;5.648;2023-01-19T11:02:24;9.82;;;2.42;;
25073;SDS011;13066;52.042;5.648;2023-01-19T11:04:55;22.42;;;3.33;;
25073;SDS011;13066;52.042;5.648;2023-01-19T11:07:27;15.07;;;2.70;;
25073;SDS011;13066;52.042;5.648;2023-01-19T11:10:15;17.33;;;2.22;;
25073;SDS011;13066;52.042;5.648;2023-01-19T11:12:53;15.90;;;2.30;;
25073;SDS011;13066;52.042;5.648;2023-01-19T11:15:23;19.55;;;2.88;;
25073;SDS011;13066;52.042;5.648;2023-01-19T11:17:52;17.50;;;2.78;;
25073;SDS011;13066;52.042;5.648;2023-01-19T11:20:21;22.20;;;3.15;;
25073;SDS011;13066;52.042;5.648;2023-01-19T11:23:02;11.40;;;2.42;;
25073;SDS011;13066;52.042;5.648;2023-01-19T11:25:31;21.85;;;2.85;;
25073;SDS011;13066;52.042;5.648;2023-01-19T11:27:59;18.73;;;3.58;;
25073;SDS011;13066;52.042;5.648;2023-01-19T11:30:34;19.20;;;2.55;;
25073;SDS011;13066;52.042;5.648;2023-01-19T11:33:03;22.27;;;3.72;;
25073;SDS011;13066;52.042;5.648;2023-01-19T11:35:34;18.15;;;3.17;;
25073;SDS011;13066;52.042;5.648;2023-01-19T11:38:04;23.83;;;2.80;;
25073;SDS011;13066;52.042;5.648;2023-01-19T11:40:33;12.65;;;3.17;;
25073;SDS011;13066;52.042;5.648;2023-01-19T11:43:01;17.17;;;2.97;;
25073;SDS011;13066;52.042;5.648;2023-01-19T11:45:30;23.05;;;3.88;;
25073;SDS011;13066;52.042;5.648;2023-01-19T11:47:59;17.35;;;3.70;;
25073;SDS011;13066;52.042;5.648;2023-01-19T11:50:30;16.58;;;2.95;;
25073;SDS011;13066;52.042;5.648;2023-01-19T11:53:03;15.98;;;3.50;;
25073;SDS011;13066;52.042;5.648;2023-01-19T11:55:35;16.83;;;3.72;;
25073;SDS011;13066;52.042;5.648;2023-01-19T11:58:04;23.33;;;4.03;;
25073;SDS011;13066;52.042;5.648;2023-01-19T12:00:32;15.73;;;3.08;;
25073;SDS011;13066;52.042;5.648;2023-01-19T12:03:07;20.15;;;4.03;;
25073;SDS011;13066;52.042;5.648;2023-01-19T12:05:41;19.15;;;4.53;;
25073;SDS011;13066;52.042;5.648;2023-01-19T12:08:14;19.60;;;4.20;;
25073;SDS011;13066;52.042;5.648;2023-01-19T12:10:45;21.13;;;3.90;;
25073;SDS011;13066;52.042;5.648;2023-01-19T12:13:16;20.25;;;5.05;;
25073;SDS011;13066;52.042;5.648;2023-01-19T12:15:46;17.48;;;3.80;;
25073;SDS011;13066;52.042;5.648;2023-01-19T12:18:15;21.67;;;4.05;;
25073;SDS011;13066;52.042;5.648;2023-01-19T12:20:47;15.85;;;3.53;;
25073;SDS011;13066;52.042;5.648;2023-01-19T12:23:22;16.88;;;2.97;;
25073;SDS011;13066;52.042;5.648;2023-01-19T12:25:59;11.43;;;2.80;;
25073;SDS011;13066;52.042;5.648;2023-01-19T12:28:31;14.20;;;3.45;;
25073;SDS011;13066;52.042;5.648;2023-01-19T12:31:01;14.18;;;2.63;;
25073;SDS011;13066;52.042;5.648;2023-01-19T12:33:33;16.83;;;2.97;;
25073;SDS011;13066;52.042;5.648;2023-01-19T12:36:04;14.15;;;2.40;;
25073;SDS011;13066;52.042;5.648;2023-01-19T12:41:20;13.10;;;2.00;;
25073;SDS011;13066;52.042;5.648;2023-01-19T12:46:41;9.35;;;1.73;;
25073;SDS011;13066;52.042;5.648;2023-01-19T12:49:13;7.20;;;1.40;;
25073;SDS011;13066;52.042;5.648;2023-01-19T12:51:49;9.00;;;2.00;;
25073;SDS011;13066;52.042;5.648;2023-01-19T12:54:19;9.82;;;1.92;;
25073;SDS011;13066;52.042;5.648;2023-01-19T12:56:55;11.18;;;1.48;;
25073;SDS011;13066;52.042;5.648;2023-01-19T12:59:24;13.52;;;1.85;;
25073;SDS011;13066;52.042;5.648;2023-01-19T13:05:13;8.35;;;1.30;;
25073;SDS011;13066;52.042;5.648;2023-01-19T13:17:03;4.18;;;1.23;;
25073;SDS011;13066;52.042;5.648;2023-01-19T13:19:43;4.93;;;1.30;;
25073;SDS011;13066;52.042;5.648;2023-01-19T13:25:23;9.05;;;1.50;;
25073;SDS011;13066;52.042;5.648;2023-01-19T13:27:54;6.38;;;1.02;;
25073;SDS011;13066;52.042;5.648;2023-01-19T13:30:24;7.25;;;1.45;;
25073;SDS011;13066;52.042;5.648;2023-01-19T13:32:53;5.00;;;1.23;;
25073;SDS011;13066;52.042;5.648;2023-01-19T13:35:23;5.50;;;1.10;;
25073;SDS011;13066;52.042;5.648;2023-01-19T13:37:51;9.73;;;1.58;;
25073;SDS011;13066;52.042;5.648;2023-01-19T13:40:19;6.43;;;1.50;;
25073;SDS011;13066;52.042;5.648;2023-01-19T13:42:51;6.53;;;1.27;;
25073;SDS011;13066;52.042;5.648;2023-01-19T13:45:25;5.47;;;1.17;;
25073;SDS011;13066;52.042;5.648;2023-01-19T13:47:56;10.73;;;1.50;;
25073;SDS011;13066;52.042;5.648;2023-01-19T13:50:26;8.70;;;1.40;;
25073;SDS011;13066;52.042;5.648;2023-01-19T13:52:55;3.50;;;1.30;;
25073;SDS011;13066;52.042;5.648;2023-01-19T13:55:26;9.57;;;1.80;;
25073;SDS011;13066;52.042;5.648;2023-01-19T13:57:55;6.35;;;1.20;;
25073;SDS011;13066;52.042;5.648;2023-01-19T14:00:24;8.00;;;1.38;;
25073;SDS011;13066;52.042;5.648;2023-01-19T14:02:54;4.07;;;1.02;;
25073;SDS011;13066;52.042;5.648;2023-01-19T14:05:26;5.47;;;1.20;;
25073;SDS011;13066;52.042;5.648;2023-01-19T14:07:59;5.82;;;1.38;;
25073;SDS011;13066;52.042;5.648;2023-01-19T14:10:32;5.97;;;1.55;;
25073;SDS011;13066;52.042;5.648;2023-01-19T14:13:01;6.28;;;1.20;;
25073;SDS011;13066;52.042;5.648;2023-01-19T14:15:31;5.53;;;1.50;;
25073;SDS011;13066;52.042;5.648;2023-01-19T14:18:07;8.07;;;1.40;;
25073;SDS011;13066;52.042;5.648;2023-01-19T14:20:52;9.30;;;2.03;;
25073;SDS011;13066;52.042;5.648;2023-01-19T14:23:36;5.03;;;1.67;;
25073;SDS011;13066;52.042;5.648;2023-01-19T14:29:20;6.50;;;1.75;;
25073;SDS011;13066;52.042;5.648;2023-01-19T14:31:51;7.88;;;1.63;;
25073;SDS011;13066;52.042;5.648;2023-01-19T14:34:29;9.35;;;1.60;;
25073;SDS011;13066;52.042;5.648;2023-01-19T14:36:58;4.35;;;1.50;;
25073;SDS011;13066;52.042;5.648;2023-01-19T14:39:27;9.95;;;1.60;;
25073;SDS011;13066;52.042;5.648;2023-01-19T14:41:57;7.82;;;2.08;;
25073;SDS011;13066;52.042;5.648;2023-01-19T14:44:27;6.47;;;1.63;;
25073;SDS011;13066;52.042;5.648;2023-01-19T14:46:57;4.57;;;1.48;;
25073;SDS011;13066;52.042;5.648;2023-01-19T14:49:32;12.30;;;2.47;;
25073;SDS011;13066;52.042;5.648;2023-01-19T14:52:03;6.22;;;1.77;;
25073;SDS011;13066;52.042;5.648;2023-01-19T14:54:34;5.10;;;1.70;;
25073;SDS011;13066;52.042;5.648;2023-01-19T14:57:09;10.18;;;2.03;;
25073;SDS011;13066;52.042;5.648;2023-01-19T14:59:37;10.88;;;2.00;;
25073;SDS011;13066;52.042;5.648;2023-01-19T15:02:05;4.22;;;1.45;;
25073;SDS011;13066;52.042;5.648;2023-01-19T15:04:33;7.05;;;1.67;;
25073;SDS011;13066;52.042;5.648;2023-01-19T15:07:01;13.95;;;1.70;;
25073;SDS011;13066;52.042;5.648;2023-01-19T15:09:29;8.48;;;1.90;;
25073;SDS011;13066;52.042;5.648;2023-01-19T15:11:57;9.73;;;1.90;;
25073;SDS011;13066;52.042;5.648;2023-01-19T15:14:26;11.95;;;2.00;;
25073;SDS011;13066;52.042;5.648;2023-01-19T15:16:55;9.80;;;2.00;;
25073;SDS011;13066;52.042;5.648;2023-01-19T15:19:24;8.35;;;1.70;;
25073;SDS011;13066;52.042;5.648;2023-01-19T15:21:52;7.15;;;1.42;;
25073;SDS011;13066;52.042;5.648;2023-01-19T15:24:19;8.57;;;1.67;;
25073;SDS011;13066;52.042;5.648;2023-01-19T15:26:48;10.90;;;1.60;;